Time;durP1;ratioP1;P1;durP2;ratioP2;P2;SDS_P1;SDS_P2;PMS_P1;PMS_P2;Temp;Humidity;BMP_temperature;BMP_pressure;BME280_temperature;BME280_humidity;BME280_pressure;Samples;Min_cycle;Max_cycle;Signal;HPM_P1;HPM_P2
2022/09/03 05:00:37;;;;;;;3.13;2.93;;;18.70;97.20;;;;;;1728239;28;20208;-73
2022/09/03 05:01:30;;;;;;;2.88;2.30;;;18.70;97.20;;;;;;1727049;28;20616;-73
2022/09/03 05:02:21;;;;;;;3.88;3.13;;;18.60;97.20;;;;;;1721582;28;20219;-73
2022/09/03 05:03:12;;;;;;;4.10;2.90;;;18.60;97.20;;;;;;1721267;28;20209;-74
2022/09/03 05:04:05;;;;;;;2.70;2.50;;;18.60;97.20;;;;;;1721320;28;20277;-73
2022/09/03 05:04:56;;;;;;;3.03;2.70;;;18.60;97.20;;;;;;1721333;28;20209;-73
2022/09/03 05:05:55;;;;;;;2.93;2.60;;;18.60;97.20;;;;;;1721329;28;20206;-73
2022/09/03 05:06:45;;;;;;;3.08;2.88;;;18.70;97.20;;;;;;1721499;28;20216;-73
2022/09/03 05:07:38;;;;;;;2.93;2.50;;;18.70;97.20;;;;;;1721299;28;20209;-73
2022/09/03 05:08:29;;;;;;;4.05;3.75;;;18.70;97.20;;;;;;1721450;28;20204;-73
2022/09/03 05:09:21;;;;;;;3.07;2.70;;;18.70;97.20;;;;;;1721442;28;20196;-73
2022/09/03 05:10:19;;;;;;;3.92;2.80;;;18.70;97.20;;;;;;1721382;28;20259;-74
2022/09/03 05:11:10;;;;;;;4.85;2.80;;;18.70;97.20;;;;;;1721482;28;20201;-74
2022/09/03 05:12:01;;;;;;;2.85;2.65;;;18.70;97.20;;;;;;1721528;28;20202;-74
2022/09/03 05:12:59;;;;;;;3.35;3.05;;;18.70;97.20;;;;;;1721452;28;20656;-73
2022/09/03 05:13:52;;;;;;;4.05;3.30;;;18.70;97.20;;;;;;1721452;28;20723;-74
2022/09/03 05:14:43;;;;;;;3.15;2.95;;;18.70;97.20;;;;;;1721550;28;20209;-73
2022/09/03 05:15:35;;;;;;;3.87;2.93;;;18.80;97.20;;;;;;1721443;28;20205;-73
2022/09/03 05:16:29;;;;;;;3.35;3.05;;;18.80;97.20;;;;;;1721472;28;20236;-73
2022/09/03 05:17:21;;;;;;;3.25;2.95;;;18.80;97.20;;;;;;1721150;28;20201;-73
2022/09/03 05:18:12;;;;;;;2.95;2.65;;;18.80;97.20;;;;;;1721372;28;20233;-73
2022/09/03 05:19:06;;;;;;;3.20;2.80;;;18.80;97.20;;;;;;1721466;28;20201;-73
2022/09/03 05:19:57;;;;;;;2.70;2.50;;;18.80;97.20;;;;;;1721427;28;20448;-73
2022/09/03 05:20:58;;;;;;;3.90;3.60;;;18.80;97.20;;;;;;1721276;28;20311;-73
2022/09/03 05:21:49;;;;;;;3.33;3.05;;;18.80;97.20;;;;;;1721365;28;20621;-73
2022/09/03 05:22:41;;;;;;;2.97;2.77;;;18.80;97.20;;;;;;1723159;28;20249;-73
2022/09/03 05:23:35;;;;;;;2.28;2.17;;;18.80;97.20;;;;;;1721301;28;20576;-73
2022/09/03 05:24:27;;;;;;;3.65;3.03;;;18.80;97.20;;;;;;1721351;28;20236;-73
2022/09/03 05:25:18;;;;;;;3.08;2.78;;;18.80;97.20;;;;;;1721429;28;20209;-73
2022/09/03 05:26:12;;;;;;;2.97;2.70;;;18.80;97.20;;;;;;1721405;28;20280;-73
2022/09/03 05:27:03;;;;;;;3.33;3.13;;;18.80;97.20;;;;;;1721370;28;20445;-73
2022/09/03 05:27:54;;;;;;;3.88;3.00;;;18.80;97.20;;;;;;1721144;28;20244;-73
2022/09/03 05:28:45;;;;;;;3.42;3.13;;;18.80;97.20;;;;;;1721187;28;20213;-73
2022/09/03 05:29:37;;;;;;;2.90;2.70;;;18.90;97.20;;;;;;1721363;28;20280;-73
2022/09/03 05:30:28;;;;;;;3.58;3.28;;;18.90;97.20;;;;;;1721224;28;20212;-73
2022/09/03 05:31:20;;;;;;;3.00;2.80;;;18.90;97.20;;;;;;1721471;28;20204;-73
2022/09/03 05:32:15;;;;;;;2.90;2.60;;;18.90;97.20;;;;;;1721378;28;20202;-73
2022/09/03 05:33:06;;;;;;;3.05;2.85;;;18.90;97.20;;;;;;1721334;28;20672;-73
2022/09/03 05:34:00;;;;;;;3.10;2.33;;;18.90;97.20;;;;;;1721342;28;20205;-74
2022/09/03 05:34:52;;;;;;;3.33;2.80;;;18.90;97.20;;;;;;1721241;28;20220;-73
2022/09/03 05:35:43;;;;;;;2.95;2.75;;;18.90;97.20;;;;;;1721222;28;20731;-73
2022/09/03 05:36:37;;;;;;;5.20;3.10;;;18.90;97.20;;;;;;1721327;28;20577;-73
2022/09/03 05:37:27;;;;;;;4.45;3.15;;;18.90;97.20;;;;;;1721053;28;20448;-73
2022/09/03 05:38:19;;;;;;;3.10;2.90;;;18.90;97.20;;;;;;1721248;28;20296;-73
2022/09/03 05:39:11;;;;;;;3.15;2.85;;;18.90;97.20;;;;;;1721275;28;20208;-73
2022/09/03 05:40:03;;;;;;;3.65;3.35;;;18.90;97.20;;;;;;1721319;28;20209;-73
2022/09/03 05:40:58;;;;;;;3.60;3.00;;;18.90;97.20;;;;;;1721084;28;20636;-73
2022/09/03 05:41:51;;;;;;;3.15;2.85;;;18.90;97.20;;;;;;1721220;28;20205;-73
2022/09/03 05:42:42;;;;;;;3.40;3.00;;;18.90;97.20;;;;;;1721363;28;20201;-73
2022/09/03 05:43:34;;;;;;;3.55;3.25;;;19.00;97.20;;;;;;1721212;28;20216;-73
2022/09/03 05:44:26;;;;;;;3.75;3.00;;;19.00;97.20;;;;;;1721239;28;20283;-72
2022/09/03 05:45:16;;;;;;;3.47;2.88;;;19.00;97.20;;;;;;1721273;28;20673;-73
2022/09/03 05:46:10;;;;;;;2.90;2.70;;;19.00;97.20;;;;;;1721212;28;20607;-73
2022/09/03 05:47:01;;;;;;;2.92;2.72;;;19.00;97.20;;;;;;1721296;28;20201;-73
2022/09/03 05:47:54;;;;;;;3.30;3.10;;;19.00;97.20;;;;;;1720960;28;20292;-73
2022/09/03 05:48:44;;;;;;;3.53;2.95;;;19.00;97.20;;;;;;1721126;28;20449;-73
2022/09/03 05:49:36;;;;;;;3.10;2.90;;;19.00;97.20;;;;;;1721273;28;20223;-73
2022/09/03 05:50:27;;;;;;;4.18;2.65;;;19.00;97.20;;;;;;1721144;28;20233;-73
2022/09/03 05:51:19;;;;;;;3.03;2.72;;;19.10;97.20;;;;;;1721225;28;20201;-73
2022/09/03 05:52:10;;;;;;;3.00;2.80;;;19.10;97.20;;;;;;1721187;28;20220;-73
2022/09/03 05:53:02;;;;;;;3.20;2.87;;;19.10;97.20;;;;;;1721341;28;20201;-73
2022/09/03 05:53:54;;;;;;;4.57;2.85;;;19.10;97.20;;;;;;1721118;28;20574;-75
2022/09/03 05:54:46;;;;;;;3.30;3.00;;;19.10;97.20;;;;;;1721240;28;20307;-74
2022/09/03 05:55:37;;;;;;;3.10;2.90;;;19.10;97.20;;;;;;1721192;28;20201;-73
2022/09/03 05:56:30;;;;;;;4.17;2.93;;;19.10;97.20;;;;;;1721226;28;20232;-73
2022/09/03 05:57:21;;;;;;;3.53;3.22;;;19.20;97.20;;;;;;1720963;28;20212;-73
2022/09/03 05:58:14;;;;;;;4.40;2.73;;;19.10;97.20;;;;;;1721140;28;20292;-73
2022/09/03 05:59:08;;;;;;;4.22;3.00;;;19.10;97.20;;;;;;1721190;28;20197;-74
2022/09/03 06:00:00;;;;;;;5.35;3.03;;;19.20;97.20;;;;;;1721252;28;20202;-73
2022/09/03 06:00:51;;;;;;;3.38;3.00;;;19.20;97.20;;;;;;1721096;28;20236;-73
2022/09/03 06:01:45;;;;;;;3.53;2.90;;;19.20;97.20;;;;;;1721098;28;20676;-73
2022/09/03 06:02:36;;;;;;;2.85;2.30;;;19.20;97.20;;;;;;1721176;28;20452;-73
2022/09/03 06:03:29;;;;;;;3.00;2.73;;;19.20;97.20;;;;;;1721184;28;20212;-74
2022/09/03 06:04:20;;;;;;;3.28;2.90;;;19.20;97.20;;;;;;1721267;28;20205;-73
2022/09/03 06:05:11;;;;;;;3.10;2.90;;;19.20;97.20;;;;;;1718593;28;20270;-73
2022/09/03 06:06:04;;;;;;;3.53;2.95;;;19.20;97.20;;;;;;1719210;28;20724;-73
2022/09/03 06:06:56;;;;;;;2.90;2.70;;;19.20;97.20;;;;;;1717719;28;20196;-73
2022/09/03 06:07:48;;;;;;;3.33;2.97;;;19.20;97.20;;;;;;1720665;28;20698;-74
2022/09/03 06:08:41;;;;;;;2.60;2.40;;;19.20;97.20;;;;;;1720833;28;20285;-71
2022/09/03 06:09:31;;;;;;;3.08;2.80;;;19.20;97.20;;;;;;1720965;28;20304;-71
2022/09/03 06:10:23;;;;;;;2.90;2.70;;;19.20;97.20;;;;;;1720944;28;20205;-71
2022/09/03 06:11:14;;;;;;;5.60;2.90;;;19.10;97.20;;;;;;1721026;28;20205;-70
2022/09/03 06:12:06;;;;;;;3.60;3.30;;;19.10;97.20;;;;;;1720952;28;20284;-70
2022/09/03 06:13:02;;;;;;;3.33;2.90;;;19.10;97.20;;;;;;1721035;28;20957;-72
2022/09/03 06:13:55;;;;;;;3.88;2.67;;;19.10;97.20;;;;;;1719124;28;20273;-70
2022/09/03 06:14:46;;;;;;;6.18;3.40;;;19.10;97.20;;;;;;1720166;28;20197;-69
2022/09/03 06:15:38;;;;;;;3.03;2.80;;;19.10;97.20;;;;;;1720535;28;20288;-69
2022/09/03 06:16:30;;;;;;;3.42;3.13;;;19.10;97.20;;;;;;1720875;28;20228;-69
2022/09/03 06:17:22;;;;;;;2.78;2.58;;;19.10;97.20;;;;;;1720303;28;20202;-70
2022/09/03 06:18:12;;;;;;;3.30;3.00;;;19.10;97.20;;;;;;1720909;28;20213;-70
2022/09/03 06:19:08;;;;;;;5.70;3.00;;;19.10;97.20;;;;;;1720672;28;20197;-69
2022/09/03 06:19:59;;;;;;;3.70;3.40;;;19.10;97.20;;;;;;1721091;28;20934;-69
2022/09/03 06:20:54;;;;;;;3.93;3.63;;;19.10;97.20;;;;;;1720820;28;20636;-69
2022/09/03 06:21:46;;;;;;;6.72;4.38;;;19.10;97.20;;;;;;1721121;28;20212;-69
2022/09/03 06:22:38;;;;;;;3.45;3.15;;;19.10;97.20;;;;;;1720957;28;20231;-70
2022/09/03 06:23:29;;;;;;;5.32;3.03;;;19.10;97.20;;;;;;1720659;28;20205;-70
2022/09/03 06:24:23;;;;;;;3.95;3.30;;;19.20;97.20;;;;;;1720703;28;20256;-69
2022/09/03 06:25:14;;;;;;;3.33;3.03;;;19.20;97.20;;;;;;1720677;28;20229;-70
2022/09/03 06:26:07;;;;;;;5.10;3.20;;;19.20;97.20;;;;;;1721131;28;20204;-70
2022/09/03 06:26:58;;;;;;;3.70;3.40;;;19.20;97.20;;;;;;1717373;28;20456;-73
2022/09/03 06:27:50;;;;;;;4.20;3.20;;;19.20;97.20;;;;;;1718552;28;20284;-70
2022/09/03 06:28:43;;;;;;;3.72;3.42;;;19.20;97.20;;;;;;1718392;28;20232;-72
2022/09/03 06:29:35;;;;;;;4.50;3.90;;;19.30;97.20;;;;;;1720641;28;20232;-70
2022/09/03 06:30:27;;;;;;;4.00;3.63;;;19.30;97.20;;;;;;1720590;28;20240;-70
2022/09/03 06:31:20;;;;;;;4.30;4.00;;;19.30;97.20;;;;;;1723380;28;20188;-70
2022/09/03 06:32:12;;;;;;;4.43;3.58;;;19.30;97.20;;;;;;1720779;28;20300;-70
2022/09/03 06:33:03;;;;;;;3.50;3.20;;;19.30;97.20;;;;;;1720854;28;20201;-70
2022/09/03 06:33:55;;;;;;;4.03;3.73;;;19.40;97.20;;;;;;1720782;28;20209;-70
2022/09/03 06:34:47;;;;;;;3.85;3.55;;;19.40;97.20;;;;;;1720854;28;20673;-71
2022/09/03 06:35:40;;;;;;;5.63;4.00;;;19.40;97.20;;;;;;1721033;28;20664;-71
2022/09/03 06:36:31;;;;;;;5.70;4.13;;;19.40;97.20;;;;;;1721021;28;20273;-71
2022/09/03 06:37:23;;;;;;;3.78;3.50;;;19.40;97.20;;;;;;1720499;28;20284;-70
2022/09/03 06:38:14;;;;;;;4.70;3.80;;;19.40;97.20;;;;;;1720888;28;20221;-70
2022/09/03 06:39:06;;;;;;;4.03;3.63;;;19.50;97.20;;;;;;1720923;28;20307;-71
2022/09/03 06:39:56;;;;;;;3.65;3.40;;;19.50;97.20;;;;;;1720912;28;20201;-70
2022/09/03 06:40:52;;;;;;;4.17;3.87;;;19.50;97.20;;;;;;1721018;28;20221;-71
2022/09/03 06:41:43;;;;;;;4.10;3.80;;;19.50;97.20;;;;;;1721106;28;20213;-71
2022/09/03 06:42:35;;;;;;;4.90;3.97;;;19.50;97.20;;;;;;1720908;28;20679;-70
2022/09/03 06:43:26;;;;;;;4.40;3.90;;;19.50;97.20;;;;;;1720996;28;20574;-71
2022/09/03 06:44:18;;;;;;;5.80;4.33;;;19.50;97.20;;;;;;1720946;28;20565;-71
2022/09/03 06:45:10;;;;;;;3.80;3.50;;;19.50;97.20;;;;;;1718322;28;20216;-71
2022/09/03 06:46:04;;;;;;;4.30;3.92;;;19.50;97.20;;;;;;1714202;28;20208;-71
2022/09/03 06:46:54;;;;;;;4.07;3.78;;;19.50;97.20;;;;;;1717933;28;20679;-70
2022/09/03 06:47:46;;;;;;;4.27;3.87;;;19.50;97.20;;;;;;1718336;28;20895;-72
2022/09/03 06:48:38;;;;;;;5.57;4.45;;;19.50;97.20;;;;;;1718681;28;21741;-70
2022/09/03 06:49:30;;;;;;;4.43;4.03;;;19.50;97.20;;;;;;1718707;28;20672;-70
2022/09/03 06:50:22;;;;;;;4.75;3.90;;;19.50;97.20;;;;;;1718340;28;20304;-71
2022/09/03 06:51:16;;;;;;;4.03;3.72;;;19.60;97.20;;;;;;1718898;28;20700;-71
2022/09/03 06:52:07;;;;;;;3.85;3.55;;;19.60;97.20;;;;;;1715662;28;20206;-70
2022/09/03 06:52:59;;;;;;;4.93;4.53;;;19.60;97.20;;;;;;1718344;28;20287;-70
2022/09/03 06:53:51;;;;;;;3.90;3.50;;;19.60;97.20;;;;;;1718715;28;20244;-70
2022/09/03 06:54:43;;;;;;;3.85;3.55;;;19.60;97.20;;;;;;1719833;28;20595;-70
2022/09/03 06:55:34;;;;;;;4.47;3.67;;;19.60;97.20;;;;;;1720581;28;20205;-71
2022/09/03 06:56:26;;;;;;;4.32;3.92;;;19.60;97.20;;;;;;1720072;28;20205;-70
2022/09/03 06:57:17;;;;;;;5.22;4.70;;;19.60;97.20;;;;;;1713653;28;20201;-70
2022/09/03 06:58:09;;;;;;;4.40;3.97;;;19.60;97.20;;;;;;1719673;28;20284;-70
2022/09/03 06:59:04;;;;;;;14.43;4.63;;;19.60;97.20;;;;;;1720672;28;20448;-71
2022/09/03 06:59:55;;;;;;;5.00;4.35;;;19.70;97.20;;;;;;1717204;28;20605;-71
2022/09/03 07:00:47;;;;;;;6.95;4.85;;;19.70;97.20;;;;;;1723004;28;20266;-70
2022/09/03 07:01:40;;;;;;;5.03;4.53;;;19.70;97.20;;;;;;1720060;28;20197;-70
2022/09/03 07:02:32;;;;;;;6.47;4.82;;;19.70;97.20;;;;;;1720396;28;20730;-70
2022/09/03 07:03:23;;;;;;;5.35;4.22;;;19.70;97.20;;;;;;1720476;28;20648;-70
2022/09/03 07:04:15;;;;;;;7.22;4.20;;;19.80;97.20;;;;;;1719971;28;20839;-70
2022/09/03 07:05:07;;;;;;;5.82;4.70;;;19.80;97.20;;;;;;1719573;28;20630;-70
2022/09/03 07:06:05;;;;;;;4.47;4.07;;;19.80;97.20;;;;;;1719377;28;20209;-70
2022/09/03 07:06:56;;;;;;;4.20;3.90;;;19.80;97.20;;;;;;1717410;28;20220;-70
2022/09/03 07:07:47;;;;;;;4.43;3.60;;;19.80;97.20;;;;;;1720069;28;20220;-70
2022/09/03 07:08:40;;;;;;;6.43;5.00;;;19.80;97.20;;;;;;1720371;28;20292;-71
2022/09/03 07:09:35;;;;;;;5.93;4.10;;;19.80;97.20;;;;;;1720506;28;20213;-71
2022/09/03 07:10:26;;;;;;;6.20;4.28;;;19.90;97.20;;;;;;1720399;28;20227;-70
2022/09/03 07:11:21;;;;;;;5.35;4.00;;;19.90;97.20;;;;;;1720004;28;20836;-70
2022/09/03 07:12:14;;;;;;;7.43;4.65;;;19.90;97.20;;;;;;1720185;28;20289;-71
2022/09/03 07:13:05;;;;;;;4.78;4.20;;;19.90;97.20;;;;;;1720502;28;20759;-70
2022/09/03 07:13:58;;;;;;;5.40;4.20;;;19.90;97.20;;;;;;1720293;28;20599;-70
2022/09/03 07:14:49;;;;;;;5.45;3.70;;;19.90;97.20;;;;;;1720360;28;20597;-70
2022/09/03 07:15:41;;;;;;;7.93;5.00;;;19.90;97.20;;;;;;1720232;28;20271;-72
2022/09/03 07:16:34;;;;;;;7.05;4.15;;;20.00;97.20;;;;;;1719143;28;20821;-71
2022/09/03 07:17:26;;;;;;;10.23;4.88;;;20.00;97.20;;;;;;1718928;28;20224;-71
2022/09/03 07:18:16;;;;;;;13.02;4.78;;;20.00;97.20;;;;;;1717720;28;20212;-70
2022/09/03 07:19:09;;;;;;;7.60;4.40;;;20.00;97.20;;;;;;1712788;28;20194;-70
2022/09/03 07:19:59;;;;;;;6.68;4.13;;;20.00;97.20;;;;;;1713171;28;20449;-70
2022/09/03 07:20:51;;;;;;;6.83;4.93;;;20.00;97.20;;;;;;1713157;28;20280;-70
2022/09/03 07:21:44;;;;;;;8.48;4.50;;;20.00;97.20;;;;;;1713186;28;20665;-70
2022/09/03 07:22:35;;;;;;;15.30;4.63;;;20.10;97.20;;;;;;1713150;28;20292;-70
2022/09/03 07:23:27;;;;;;;6.30;4.30;;;20.10;97.20;;;;;;1713161;28;20212;-70
2022/09/03 07:24:20;;;;;;;8.95;4.07;;;20.10;97.20;;;;;;1713096;28;20442;-70
2022/09/03 07:25:11;;;;;;;7.03;4.13;;;20.10;97.20;;;;;;1713218;28;20653;-70
2022/09/03 07:26:06;;;;;;;4.43;3.60;;;20.10;97.20;;;;;;1713286;28;20565;-71
2022/09/03 07:26:58;;;;;;;5.43;4.10;;;20.20;97.20;;;;;;1712965;28;20210;-70
2022/09/03 07:27:50;;;;;;;22.23;4.07;;;20.20;97.20;;;;;;1712525;28;20267;-70
2022/09/03 07:28:44;;;;;;;6.40;4.22;;;20.20;97.20;;;;;;1713001;28;20252;-70
2022/09/03 07:29:35;;;;;;;8.90;3.72;;;20.20;97.20;;;;;;1713198;28;20198;-70
2022/09/03 07:30:27;;;;;;;6.00;3.40;;;20.20;97.20;;;;;;1713156;28;20249;-70
2022/09/03 07:31:21;;;;;;;5.50;4.43;;;20.20;97.20;;;;;;1713101;28;20212;-70
2022/09/03 07:32:13;;;;;;;4.95;3.88;;;20.30;97.20;;;;;;1713142;28;20264;-70
2022/09/03 07:33:06;;;;;;;9.40;3.97;;;20.30;97.20;;;;;;1713948;28;20657;-70
2022/09/03 07:33:58;;;;;;;8.90;4.00;;;20.30;97.20;;;;;;1719783;28;20271;-70
2022/09/03 07:34:51;;;;;;;7.75;3.75;;;20.30;97.20;;;;;;1725148;28;20242;-69
2022/09/03 07:35:43;;;;;;;5.15;4.15;;;20.30;97.20;;;;;;1726695;28;20196;-69
2022/09/03 07:36:37;;;;;;;6.57;3.67;;;20.30;97.20;;;;;;1726660;28;20204;-70
2022/09/03 07:37:30;;;;;;;3.97;3.60;;;20.30;97.20;;;;;;1726553;28;20200;-70
2022/09/03 07:38:22;;;;;;;4.78;3.08;;;20.40;97.20;;;;;;1726672;28;20200;-70
2022/09/03 07:39:15;;;;;;;3.85;3.38;;;20.40;97.20;;;;;;1725441;28;20200;-70
2022/09/03 07:40:07;;;;;;;5.15;3.53;;;20.40;97.20;;;;;;1718248;28;20676;-70
2022/09/03 07:41:00;;;;;;;5.10;3.83;;;20.40;97.20;;;;;;1718302;28;20279;-70
2022/09/03 07:41:50;;;;;;;6.50;3.90;;;20.40;97.20;;;;;;1718286;28;20193;-70
2022/09/03 07:42:42;;;;;;;3.63;3.33;;;20.40;97.20;;;;;;1719339;28;20212;-69
2022/09/03 07:43:35;;;;;;;9.10;4.20;;;20.40;97.20;;;;;;1718233;28;20201;-70
2022/09/03 07:44:27;;;;;;;4.63;3.40;;;20.40;97.20;;;;;;1718905;28;20201;-70
2022/09/03 07:45:18;;;;;;;5.65;4.45;;;20.50;97.20;;;;;;1718433;28;20208;-70
2022/09/03 07:46:11;;;;;;;6.23;4.37;;;20.50;97.20;;;;;;1718249;28;20276;-70
2022/09/03 07:47:02;;;;;;;4.78;3.60;;;20.50;97.20;;;;;;1718525;28;20197;-70
2022/09/03 07:47:54;;;;;;;5.10;4.17;;;20.50;97.20;;;;;;1717676;28;20201;-70
2022/09/03 07:48:47;;;;;;;5.75;4.13;;;20.40;97.20;;;;;;1718210;28;20205;-70
2022/09/03 07:49:39;;;;;;;5.10;3.90;;;20.40;97.20;;;;;;1718370;28;20204;-70
2022/09/03 07:50:36;;;;;;;4.32;3.88;;;20.40;97.20;;;;;;1718316;28;20197;-70
2022/09/03 07:51:30;;;;;;;4.68;3.88;;;20.40;97.20;;;;;;1718550;28;20205;-70
2022/09/03 07:52:21;;;;;;;6.28;3.85;;;20.40;97.20;;;;;;1718622;28;20194;-70
2022/09/03 07:53:16;;;;;;;5.78;3.88;;;20.40;97.20;;;;;;1718468;28;20719;-70
2022/09/03 07:54:09;;;;;;;6.50;4.32;;;20.40;97.20;;;;;;1718632;28;20197;-70
2022/09/03 07:55:01;;;;;;;4.85;3.90;;;20.40;97.20;;;;;;1718204;28;20696;-70
2022/09/03 07:55:53;;;;;;;4.72;4.30;;;20.40;97.20;;;;;;1718446;28;20668;-70
2022/09/03 07:56:44;;;;;;;5.00;4.07;;;20.40;97.20;;;;;;1718467;28;20284;-70
2022/09/03 07:57:35;;;;;;;6.18;4.40;;;20.40;97.20;;;;;;1717973;28;20688;-70
2022/09/03 07:59:04;;;;;;;9.93;4.80;;;20.40;97.20;;;;;;1718387;28;20646;-70
2022/09/03 07:59:54;;;;;;;5.35;3.80;;;20.40;97.20;;;;;;1716485;28;20211;-70
2022/09/03 08:00:47;;;;;;;5.67;4.20;;;20.40;97.20;;;;;;1720142;28;20749;-70
2022/09/03 08:01:38;;;;;;;4.75;4.28;;;20.40;97.20;;;;;;1721156;28;20448;-70
2022/09/03 08:02:30;;;;;;;6.70;4.77;;;20.50;97.20;;;;;;1721958;28;20201;-70
2022/09/03 08:03:21;;;;;;;9.13;4.80;;;20.50;97.20;;;;;;1722000;28;20448;-70
2022/09/03 08:04:13;;;;;;;6.47;4.87;;;20.50;97.20;;;;;;1721984;28;20201;-70
2022/09/03 08:05:04;;;;;;;7.78;4.25;;;20.50;97.20;;;;;;1721990;28;20201;-69
2022/09/03 08:06:00;;;;;;;5.10;4.13;;;20.50;97.20;;;;;;1721956;28;20624;-70
2022/09/03 08:06:54;;;;;;;4.75;4.35;;;20.50;97.20;;;;;;1721230;28;20672;-70
2022/09/03 08:07:46;;;;;;;4.32;4.00;;;20.50;97.20;;;;;;1719441;28;20224;-70
2022/09/03 08:08:39;;;;;;;4.40;4.05;;;20.50;97.20;;;;;;1719467;28;20216;-70
2022/09/03 08:09:32;;;;;;;4.28;3.97;;;20.60;97.20;;;;;;1719652;28;20205;-70
2022/09/03 08:10:23;;;;;;;4.28;3.90;;;20.60;97.20;;;;;;1719933;28;20263;-71
2022/09/03 08:11:16;;;;;;;4.40;4.00;;;20.60;97.20;;;;;;1719851;28;20259;-70
2022/09/03 08:12:07;;;;;;;5.00;4.47;;;20.60;97.20;;;;;;1719550;28;20312;-70
2022/09/03 08:12:59;;;;;;;4.87;4.47;;;20.70;97.20;;;;;;1719380;28;20319;-70
2022/09/03 08:13:56;;;;;;;4.88;4.47;;;20.70;97.20;;;;;;1719980;28;20452;-70
2022/09/03 08:14:48;;;;;;;5.10;4.70;;;20.70;97.20;;;;;;1720075;28;20209;-70
2022/09/03 08:15:41;;;;;;;5.25;4.43;;;20.80;97.20;;;;;;1719675;28;20682;-70
2022/09/03 08:16:35;;;;;;;4.28;3.95;;;20.80;97.20;;;;;;1719923;28;20578;-70
2022/09/03 08:17:25;;;;;;;4.18;3.78;;;20.90;97.20;;;;;;1719134;28;20215;-70
2022/09/03 08:18:17;;;;;;;4.20;3.80;;;21.00;97.20;;;;;;1719695;28;20288;-70
2022/09/03 08:19:10;;;;;;;7.05;4.43;;;21.00;97.20;;;;;;1719229;28;20212;-70
2022/09/03 08:20:02;;;;;;;6.22;4.13;;;21.10;97.20;;;;;;1719556;28;20189;-70
2022/09/03 08:20:53;;;;;;;5.05;4.03;;;21.10;97.20;;;;;;1719294;28;20221;-70
2022/09/03 08:21:45;;;;;;;4.53;4.13;;;21.20;97.20;;;;;;1719439;28;20676;-70
2022/09/03 08:22:36;;;;;;;4.78;4.38;;;21.20;97.20;;;;;;1720178;28;20209;-70
2022/09/03 08:23:28;;;;;;;4.93;4.13;;;21.30;97.20;;;;;;1719606;28;20281;-70
2022/09/03 08:24:23;;;;;;;4.30;3.90;;;21.30;97.20;;;;;;1719276;28;20455;-70
2022/09/03 08:25:15;;;;;;;4.32;3.92;;;21.30;97.20;;;;;;1719696;28;20190;-70
2022/09/03 08:26:06;;;;;;;4.10;3.80;;;21.40;97.20;;;;;;1719456;28;20673;-70
2022/09/03 08:26:58;;;;;;;4.93;4.35;;;21.40;97.20;;;;;;1719605;28;20193;-69
2022/09/03 08:27:49;;;;;;;3.63;3.38;;;21.40;97.20;;;;;;1719369;28;20197;-70
2022/09/03 08:28:41;;;;;;;3.80;3.50;;;21.50;97.20;;;;;;1719371;28;20237;-70
2022/09/03 08:29:32;;;;;;;3.90;3.58;;;21.50;97.20;;;;;;1719335;28;20209;-70
2022/09/03 08:30:25;;;;;;;3.63;3.40;;;21.50;97.20;;;;;;1719629;28;20220;-70
2022/09/03 08:31:18;;;;;;;4.20;3.90;;;21.50;97.20;;;;;;1719438;28;20197;-70
2022/09/03 08:32:09;;;;;;;3.50;3.20;;;21.60;97.20;;;;;;1719982;28;20197;-70
2022/09/03 08:33:03;;;;;;;4.20;3.95;;;21.60;97.20;;;;;;1721679;28;20209;-70
2022/09/03 08:33:58;;;;;;;3.92;3.63;;;21.60;97.20;;;;;;1721740;28;20548;-70
2022/09/03 08:34:49;;;;;;;3.70;3.40;;;21.60;97.20;;;;;;1721792;28;20212;-70
2022/09/03 08:35:41;;;;;;;4.25;3.90;;;21.60;97.20;;;;;;1721978;28;20316;-69
2022/09/03 08:36:35;;;;;;;3.95;3.65;;;21.60;97.20;;;;;;1721760;28;20201;-70
2022/09/03 08:37:28;;;;;;;4.20;3.83;;;21.70;97.20;;;;;;1719946;28;20205;-72
2022/09/03 08:38:18;;;;;;;3.85;3.55;;;21.70;97.20;;;;;;1719618;28;20209;-72
2022/09/03 08:39:11;;;;;;;5.70;3.93;;;21.70;97.20;;;;;;1719506;28;20280;-73
2022/09/03 08:40:04;;;;;;;4.50;4.20;;;21.80;97.20;;;;;;1719177;28;20649;-70
2022/09/03 08:41:07;;;;;;;3.55;3.25;;;21.90;97.20;;;;;;1719018;28;20229;-70
2022/09/03 08:42:24;;;;;;;4.20;3.90;;;21.90;97.20;;;;;;1719319;28;20212;-70
2022/09/03 08:43:18;;;;;;;4.03;3.72;;;22.00;97.20;;;;;;1715179;28;20201;-70
2022/09/03 08:44:20;;;;;;;3.80;3.50;;;22.00;97.20;;;;;;1719420;28;20208;-70
2022/09/03 08:45:17;;;;;;;3.80;3.55;;;22.10;97.20;;;;;;1719586;28;20652;-70
2022/09/03 08:46:08;;;;;;;3.90;3.60;;;22.10;97.20;;;;;;1719259;28;20277;-70
2022/09/03 08:47:05;;;;;;;3.87;3.53;;;22.20;97.20;;;;;;1719123;28;20221;-70
2022/09/03 08:48:04;;;;;;;3.90;3.60;;;22.20;97.20;;;;;;1718961;28;20451;-70
2022/09/03 08:48:56;;;;;;;4.30;4.00;;;22.20;97.20;;;;;;1719324;28;20205;-70
2022/09/03 08:49:54;;;;;;;4.15;3.85;;;22.30;97.20;;;;;;1719303;28;20205;-70
2022/09/03 08:50:58;;;;;;;6.40;3.70;;;22.30;97.20;;;;;;1719032;28;20221;-70
2022/09/03 08:51:52;;;;;;;4.25;3.85;;;22.30;97.20;;;;;;1719397;28;20220;-70
2022/09/03 08:52:48;;;;;;;4.70;3.90;;;22.30;97.20;;;;;;1719432;28;20216;-70
2022/09/03 08:53:47;;;;;;;4.60;4.20;;;22.30;97.20;;;;;;1719580;28;20901;-70
2022/09/03 08:54:38;;;;;;;4.28;3.88;;;22.30;97.20;;;;;;1718804;28;20443;-70
2022/09/03 08:55:35;;;;;;;3.77;3.47;;;22.30;97.20;;;;;;1719147;28;20276;-70
2022/09/03 08:56:29;;;;;;;4.30;4.00;;;22.30;97.20;;;;;;1719042;28;20451;-70
2022/09/03 08:57:21;;;;;;;4.45;4.15;;;22.30;97.20;;;;;;1718946;28;20247;-70
2022/09/03 08:58:14;;;;;;;4.00;3.70;;;22.30;97.20;;;;;;1719094;28;20197;-70
2022/09/03 08:59:06;;;;;;;5.82;3.50;;;22.30;97.20;;;;;;1719107;28;20625;-70
2022/09/03 08:59:57;;;;;;;6.20;3.67;;;22.30;97.20;;;;;;1719143;28;20226;-70
2022/09/03 09:01:00;;;;;;;4.27;3.87;;;22.30;97.20;;;;;;1719302;28;20331;-70
2022/09/03 09:01:57;;;;;;;4.28;3.80;;;22.30;97.20;;;;;;1719698;28;20209;-70
2022/09/03 09:03:04;;;;;;;3.88;3.58;;;22.30;97.20;;;;;;1720740;28;20193;-70
2022/09/03 09:04:05;;;;;;;3.50;3.20;;;22.40;97.20;;;;;;1714817;28;20241;-70
2022/09/03 09:05:03;;;;;;;6.15;3.55;;;22.40;97.20;;;;;;1720513;28;20228;-70
2022/09/03 09:06:04;;;;;;;6.25;4.35;;;22.40;97.20;;;;;;1721580;28;20213;-70
2022/09/03 09:07:04;;;;;;;6.05;4.28;;;22.40;97.20;;;;;;1721516;28;20660;-70
2022/09/03 09:08:03;;;;;;;10.82;3.90;;;22.40;97.20;;;;;;1720033;28;20209;-70
2022/09/03 09:09:05;;;;;;;5.57;4.10;;;22.40;97.20;;;;;;1719201;28;20193;-70
2022/09/03 09:10:03;;;;;;;6.30;4.10;;;22.40;97.20;;;;;;1718927;28;20664;-70
2022/09/03 09:11:05;;;;;;;6.50;5.00;;;22.40;97.20;;;;;;1719174;28;20224;-70
2022/09/03 09:12:07;;;;;;;5.05;4.30;;;22.40;97.20;;;;;;1719380;28;21025;-70
2022/09/03 09:13:12;;;;;;;7.60;3.75;;;22.40;97.20;;;;;;1720665;28;20200;-70
2022/09/03 09:14:09;;;;;;;5.25;4.32;;;22.40;97.20;;;;;;1719376;28;20193;-70
2022/09/03 09:15:09;;;;;;;11.27;4.60;;;22.40;97.20;;;;;;1718851;28;20193;-70
2022/09/03 09:16:07;;;;;;;7.30;4.57;;;22.40;97.20;;;;;;1719276;28;20218;-70
2022/09/03 09:17:08;;;;;;;6.72;4.28;;;22.40;97.20;;;;;;1718730;28;20256;-70
2022/09/03 09:18:08;;;;;;;7.75;4.60;;;22.40;97.20;;;;;;1719087;28;20209;-70
2022/09/03 09:19:10;;;;;;;4.47;4.18;;;22.40;97.20;;;;;;1719077;28;20212;-70
2022/09/03 09:20:09;;;;;;;4.40;3.97;;;22.40;97.20;;;;;;1719202;28;20567;-70
2022/09/03 09:21:12;;;;;;;5.80;3.70;;;22.40;97.20;;;;;;1719154;28;20711;-70
2022/09/03 09:22:08;;;;;;;4.40;4.00;;;22.40;97.20;;;;;;1719159;28;20210;-70
2022/09/03 09:23:04;;;;;;;4.32;3.97;;;22.40;97.20;;;;;;1719056;28;21559;-70
2022/09/03 09:24:01;;;;;;;3.60;3.30;;;22.40;97.20;;;;;;1718918;28;20669;-70
2022/09/03 09:24:55;;;;;;;4.07;3.72;;;22.40;97.20;;;;;;1719028;28;20205;-70
2022/09/03 09:25:48;;;;;;;4.50;4.20;;;22.40;97.20;;;;;;1718866;28;20197;-70
2022/09/03 09:26:42;;;;;;;5.40;5.00;;;22.40;97.20;;;;;;1719287;28;20205;-70
2022/09/03 09:27:32;;;;;;;4.55;3.95;;;22.40;97.20;;;;;;1719304;28;20670;-70
2022/09/03 09:28:28;;;;;;;4.53;4.10;;;22.40;97.20;;;;;;1718263;28;20189;-70
2022/09/03 09:29:19;;;;;;;5.43;4.00;;;22.50;97.20;;;;;;1718928;28;20205;-70
2022/09/03 09:30:15;;;;;;;4.27;3.87;;;22.50;97.20;;;;;;1720961;28;20197;-70
2022/09/03 09:31:11;;;;;;;5.70;4.07;;;22.60;97.20;;;;;;1721581;28;20205;-70
2022/09/03 09:32:04;;;;;;;4.30;4.00;;;22.70;97.20;;;;;;1720069;28;20284;-70
2022/09/03 09:32:55;;;;;;;4.30;4.00;;;22.80;97.20;;;;;;1720041;28;20201;-70
2022/09/03 09:33:47;;;;;;;4.17;3.87;;;22.90;97.20;;;;;;1721357;28;20209;-70
2022/09/03 09:34:40;;;;;;;4.13;3.83;;;22.90;97.20;;;;;;1721152;28;20213;-70
2022/09/03 09:35:31;;;;;;;4.28;3.97;;;23.00;97.20;;;;;;1721358;28;20201;-70
2022/09/03 09:36:22;;;;;;;4.22;3.90;;;23.10;97.20;;;;;;1721335;28;20220;-70
2022/09/03 09:37:15;;;;;;;4.83;4.40;;;23.20;97.20;;;;;;1721055;28;20312;-70